Time;durP1;ratioP1;P1;durP2;ratioP2;P2;SDS_P1;SDS_P2;PMS_P1;PMS_P2;Temp;Humidity;BMP_temperature;BMP_pressure;BME280_temperature;BME280_humidity;BME280_pressure;Samples;Min_cycle;Max_cycle;Signal;HPM_P1;HPM_P2
2022/11/12 00:01:13;;;;;;;17.90;13.33;;;8.10;99.90;;;;;;4883625;29;20470;-79
2022/11/12 00:03:41;;;;;;;12.90;11.60;;;8.10;1.00;;;;;;4875051;29;21007;-79
2022/11/12 00:06:09;;;;;;;13.60;11.53;;;8.30;1.00;;;;;;4878931;29;20557;-80
2022/11/12 00:08:37;;;;;;;12.60;11.40;;;8.30;99.90;;;;;;4881528;29;21004;-77
2022/11/12 00:11:07;;;;;;;11.43;10.23;;;8.40;99.90;;;;;;4878940;29;20599;-78
2022/11/12 00:13:35;;;;;;;18.13;12.13;;;8.40;99.90;;;;;;4880261;29;20538;-78
2022/11/12 00:16:04;;;;;;;13.80;11.50;;;8.30;99.90;;;;;;4879490;29;20473;-79
2022/11/12 00:18:32;;;;;;;11.50;10.50;;;8.30;99.90;;;;;;4881405;29;20585;-79
2022/11/12 00:21:00;;;;;;;11.63;10.53;;;8.20;99.90;;;;;;4883850;29;20473;-79
2022/11/12 00:23:28;;;;;;;23.93;13.13;;;8.20;99.90;;;;;;4879326;29;21104;-79
2022/11/12 00:26:01;;;;;;;17.43;11.00;;;8.00;33.80;;;;;;4882944;29;20561;-79
2022/11/12 00:28:30;;;;;;;15.83;10.30;;;8.00;1.00;;;;;;4880560;29;20490;-80
2022/11/12 00:31:09;;;;;;;21.87;11.73;;;7.90;1.00;;;;;;4880268;29;20577;-79
2022/11/12 00:33:41;;;;;;;18.30;10.23;;;7.80;99.90;;;;;;4882913;29;21060;-79
2022/11/12 00:36:10;;;;;;;20.13;10.97;;;8.00;99.90;;;;;;4885684;29;20462;-79
2022/11/12 00:38:38;;;;;;;15.13;10.43;;;8.00;1.00;;;;;;4884328;29;20577;-80
2022/11/12 00:41:07;;;;;;;10.20;9.20;;;8.00;1.00;;;;;;4884334;29;20481;-80
2022/11/12 00:43:36;;;;;;;13.87;8.83;;;8.00;1.00;;;;;;4881918;29;20474;-80
2022/11/12 00:46:05;;;;;;;30.17;10.57;;;8.00;99.90;;;;;;4882085;29;20479;-80
2022/11/12 00:48:33;;;;;;;10.93;9.27;;;8.10;99.90;;;;;;4884513;29;20509;-80
2022/11/12 00:51:03;;;;;;;11.20;9.27;;;8.00;1.00;;;;;;4885176;29;20494;-79
2022/11/12 00:53:32;;;;;;;10.63;9.30;;;8.00;1.00;;;;;;4884770;29;20482;-79
2022/11/12 00:56:01;;;;;;;11.43;8.60;;;7.80;99.90;;;;;;4885740;29;20474;-79
2022/11/12 00:58:30;;;;;;;8.60;8.00;;;7.90;99.90;;;;;;4886950;29;20597;-79
2022/11/12 01:01:06;;;;;;;10.17;9.17;;;7.90;1.00;;;;;;4889206;29;20455;-80
2022/11/12 01:03:35;;;;;;;8.10;7.60;;;7.90;1.00;;;;;;4887306;29;21098;-79
2022/11/12 01:06:04;;;;;;;7.57;7.10;;;7.90;1.00;;;;;;4889610;29;21041;-79
2022/11/12 01:08:32;;;;;;;7.43;6.90;;;7.80;1.00;;;;;;4882164;29;21097;-80
2022/11/12 01:11:11;;;;;;;7.47;6.87;;;8.00;1.00;;;;;;4885658;29;20497;-79
2022/11/12 01:13:41;;;;;;;8.10;7.50;;;8.00;99.90;;;;;;4887488;29;20855;-79
2022/11/12 01:16:15;;;;;;;7.13;6.63;;;8.00;99.90;;;;;;4882489;29;21052;-78
2022/11/12 01:18:44;;;;;;;6.23;5.90;;;7.90;1.00;;;;;;4887025;29;20516;-79
2022/11/12 01:21:13;;;;;;;7.37;6.77;;;7.90;1.00;;;;;;4885884;29;20453;-78
2022/11/12 01:23:42;;;;;;;6.53;6.17;;;7.90;99.90;;;;;;4882274;29;20593;-79
2022/11/12 01:26:12;;;;;;;6.80;6.37;;;8.10;99.90;;;;;;4882592;29;20554;-79
2022/11/12 01:28:41;;;;;;;7.40;6.90;;;8.00;99.90;;;;;;4883168;29;20482;-80
2022/11/12 01:31:12;;;;;;;7.93;6.50;;;8.00;99.90;;;;;;4882533;29;20486;-79
2022/11/12 01:33:41;;;;;;;10.03;7.30;;;8.00;99.90;;;;;;4881966;29;20461;-79
2022/11/12 01:36:10;;;;;;;7.23;5.90;;;7.90;1.00;;;;;;4885173;29;20468;-80
2022/11/12 01:38:40;;;;;;;8.33;6.00;;;7.90;1.00;;;;;;4884506;29;20481;-79
2022/11/12 01:41:11;;;;;;;12.47;7.03;;;7.90;1.00;;;;;;4883622;29;20981;-80
2022/11/12 01:43:39;;;;;;;6.30;5.80;;;7.80;1.00;;;;;;4884963;29;20472;-79
2022/11/12 01:46:18;;;;;;;6.63;6.13;;;7.60;1.00;;;;;;4880985;29;20474;-79
2022/11/12 01:48:50;;;;;;;7.50;6.90;;;7.60;1.00;;;;;;4882567;29;20486;-79
2022/11/12 01:51:20;;;;;;;7.60;6.97;;;7.70;1.00;;;;;;4884057;29;20482;-79
2022/11/12 01:53:53;;;;;;;6.67;6.20;;;7.60;1.00;;;;;;4883521;29;20517;-79
2022/11/12 01:56:23;;;;;;;6.53;5.90;;;7.70;99.90;;;;;;4881784;29;20987;-79
2022/11/12 01:58:58;;;;;;;8.60;7.53;;;7.70;99.90;;;;;;4879992;29;21229;-80
2022/11/12 02:01:28;;;;;;;7.33;6.90;;;7.70;1.00;;;;;;4881720;29;20893;-78
2022/11/12 02:03:56;;;;;;;7.93;7.00;;;7.70;1.00;;;;;;4882595;29;20565;-80
2022/11/12 02:06:25;;;;;;;18.27;8.27;;;7.60;1.00;;;;;;4879502;29;20474;-79
2022/11/12 02:08:53;;;;;;;14.20;7.97;;;7.70;32.80;;;;;;4884050;29;20514;-78
2022/11/12 02:11:22;;;;;;;6.93;6.40;;;7.60;1.00;;;;;;4879480;29;20489;-78
2022/11/12 02:13:57;;;;;;;8.40;7.60;;;7.60;99.90;;;;;;4883327;29;20581;-79
2022/11/12 02:16:31;;;;;;;13.63;7.20;;;7.40;80.40;;;;;;4879626;29;20813;-79
2022/11/12 02:18:59;;;;;;;15.33;7.20;;;7.40;99.90;;;;;;4879767;29;20520;-79
2022/11/12 02:21:30;;;;;;;8.03;6.47;;;7.40;1.00;;;;;;4886036;29;20459;-79
2022/11/12 02:24:00;;;;;;;30.63;7.40;;;7.40;1.00;;;;;;4882520;29;20566;-79
2022/11/12 02:26:33;;;;;;;6.40;6.00;;;7.40;99.90;;;;;;4881976;29;20525;-79
2022/11/12 02:29:01;;;;;;;6.47;5.87;;;7.40;99.90;;;;;;4875706;29;20485;-79
2022/11/12 02:31:30;;;;;;;10.50;6.43;;;7.30;1.00;;;;;;4882949;29;20558;-80
2022/11/12 02:33:58;;;;;;;6.90;6.30;;;7.30;99.90;;;;;;4881297;29;20459;-80
2022/11/12 02:36:27;;;;;;;6.13;5.70;;;7.40;99.90;;;;;;4884003;29;21093;-79
2022/11/12 02:38:57;;;;;;;12.53;6.80;;;7.40;99.90;;;;;;4883915;29;20524;-79
2022/11/12 02:41:25;;;;;;;10.27;6.17;;;7.20;1.00;;;;;;4883400;29;20859;-79
2022/11/12 02:43:53;;;;;;;5.60;5.30;;;7.20;1.00;;;;;;4884044;29;21152;-79
2022/11/12 02:46:22;;;;;;;6.43;6.03;;;7.10;99.90;;;;;;4881739;29;20469;-79
2022/11/12 02:48:50;;;;;;;5.47;5.07;;;7.20;99.90;;;;;;4881580;29;21292;-79
2022/11/12 02:51:18;;;;;;;5.80;5.50;;;7.10;99.90;;;;;;4882984;29;20477;-80
2022/11/12 02:53:46;;;;;;;5.73;5.43;;;7.10;76.40;;;;;;4881083;29;20473;-78
2022/11/12 02:56:16;;;;;;;6.33;5.93;;;7.00;1.00;;;;;;4880274;29;20527;-78
2022/11/12 02:58:44;;;;;;;6.40;5.90;;;7.20;17.60;;;;;;4880941;29;20491;-78
2022/11/12 03:01:12;;;;;;;6.00;5.70;;;7.20;19.10;;;;;;4880387;29;20491;-79
2022/11/12 03:03:40;;;;;;;6.63;6.27;;;7.20;1.00;;;;;;4884062;29;20467;-79
2022/11/12 03:06:08;;;;;;;6.03;5.73;;;7.10;1.00;;;;;;4888504;29;20563;-79
2022/11/12 03:08:36;;;;;;;5.53;5.23;;;7.20;1.00;;;;;;4882959;29;21011;-78
2022/11/12 03:11:09;;;;;;;5.97;5.60;;;7.20;1.00;;;;;;4884025;29;20477;-79
2022/11/12 03:13:39;;;;;;;6.20;5.90;;;7.30;1.00;;;;;;4883227;29;20554;-78
2022/11/12 03:16:07;;;;;;;6.20;5.80;;;7.20;1.00;;;;;;4880927;29;20991;-79
2022/11/12 03:18:36;;;;;;;6.57;6.03;;;7.10;99.90;;;;;;4884111;29;20488;-78
2022/11/12 03:21:05;;;;;;;5.60;5.30;;;7.10;99.90;;;;;;4880943;29;20559;-81
2022/11/12 03:23:33;;;;;;;6.40;5.90;;;7.30;99.90;;;;;;4883318;29;20496;-78
2022/11/12 03:26:03;;;;;;;5.50;5.20;;;7.30;99.90;;;;;;4884794;29;20475;-78
2022/11/12 03:28:31;;;;;;;5.83;5.43;;;7.00;99.90;;;;;;4881524;29;20484;-78
2022/11/12 03:31:01;;;;;;;5.03;4.73;;;7.00;99.90;;;;;;4879623;29;20452;-77
2022/11/12 03:33:30;;;;;;;5.80;5.43;;;7.00;99.90;;;;;;4879960;29;20562;-78
2022/11/12 03:35:58;;;;;;;5.40;5.10;;;6.90;99.90;;;;;;4880790;29;20457;-77
2022/11/12 03:38:26;;;;;;;5.00;4.80;;;6.90;99.90;;;;;;4880574;29;20498;-78
2022/11/12 03:40:55;;;;;;;5.80;5.50;;;6.80;99.90;;;;;;4879432;29;20981;-79
2022/11/12 03:43:23;;;;;;;5.30;5.10;;;6.70;99.90;;;;;;4879944;29;20469;-80
2022/11/12 03:45:51;;;;;;;4.97;4.77;;;6.60;99.90;;;;;;4878749;29;20972;-78
2022/11/12 03:48:21;;;;;;;5.47;5.17;;;6.70;1.00;;;;;;4879419;29;20482;-79
2022/11/12 03:50:49;;;;;;;4.60;4.30;;;6.70;99.90;;;;;;4879920;29;20474;-78
2022/11/12 03:53:17;;;;;;;5.00;4.80;;;6.70;99.90;;;;;;4882725;29;20489;-78
2022/11/12 03:55:45;;;;;;;9.17;8.57;;;6.60;99.90;;;;;;4881796;29;20462;-78
2022/11/12 03:58:13;;;;;;;7.60;7.10;;;6.60;99.90;;;;;;4878310;29;20473;-80
2022/11/12 04:00:42;;;;;;;6.23;5.83;;;6.50;99.90;;;;;;4878753;29;20539;-79
2022/11/12 04:03:10;;;;;;;5.80;5.50;;;6.50;99.90;;;;;;4880380;29;20462;-79
2022/11/12 04:08:40;;;;;;;5.43;5.13;;;6.70;99.90;;;;;;4862151;29;20490;-79
2022/11/12 04:11:11;;;;;;;6.00;5.40;;;6.80;1.00;;;;;;4860542;29;20583;-79
2022/11/12 04:13:40;;;;;;;5.77;5.40;;;6.70;1.00;;;;;;4870442;29;20487;-79
2022/11/12 04:22:06;;;;;;;6.03;5.63;;;6.60;99.90;;;;;;4835698;29;21041;-78
2022/11/12 04:27:23;;;;;;;5.00;4.70;;;6.80;99.90;;;;;;4863869;29;20544;-78
2022/11/12 04:32:40;;;;;;;5.53;5.13;;;6.60;99.90;;;;;;4881382;29;20515;-79
2022/11/12 04:35:09;;;;;;;5.63;5.33;;;6.70;99.90;;;;;;4879699;29;20495;-78
2022/11/12 04:37:45;;;;;;;5.80;5.40;;;6.90;99.90;;;;;;4878429;29;20861;-78
2022/11/12 04:45:50;;;;;;;4.93;4.73;;;6.70;99.90;;;;;;4879969;29;20893;-77
2022/11/12 04:48:20;;;;;;;6.07;5.53;;;6.80;99.90;;;;;;4879944;29;20496;-78
2022/11/12 04:50:52;;;;;;;5.77;5.37;;;6.70;99.90;;;;;;4881031;29;20472;-78
2022/11/12 04:53:22;;;;;;;5.40;5.10;;;6.70;1.00;;;;;;4882299;29;20477;-78
2022/11/12 04:55:50;;;;;;;5.40;5.10;;;6.80;1.00;;;;;;4883345;29;20474;-79
2022/11/12 04:58:19;;;;;;;4.90;4.60;;;6.80;1.00;;;;;;4885055;29;20566;-79
2022/11/12 05:00:47;;;;;;;5.13;4.77;;;6.80;1.00;;;;;;4879657;29;20485;-77
2022/11/12 05:03:16;;;;;;;5.40;5.00;;;7.00;1.00;;;;;;4881268;29;20471;-78
2022/11/12 05:05:44;;;;;;;5.47;5.20;;;7.00;1.00;;;;;;4883070;29;20520;-78
2022/11/12 05:08:12;;;;;;;4.90;4.70;;;6.90;1.00;;;;;;4883099;29;20883;-78
2022/11/12 05:10:42;;;;;;;5.30;5.00;;;7.00;1.00;;;;;;4886865;29;20455;-77
2022/11/12 05:13:10;;;;;;;5.50;5.20;;;7.00;99.90;;;;;;4885799;29;20987;-77
2022/11/12 05:15:38;;;;;;;6.60;6.20;;;7.00;1.00;;;;;;4884128;29;20467;-74
2022/11/12 05:18:06;;;;;;;6.40;6.00;;;7.00;99.90;;;;;;4885926;29;20518;-77
2022/11/12 05:20:35;;;;;;;5.83;5.53;;;6.80;1.00;;;;;;4885630;29;20957;-78
2022/11/12 05:23:03;;;;;;;6.10;5.70;;;6.90;1.00;;;;;;4886846;29;20559;-78
2022/11/12 05:25:35;;;;;;;5.67;5.37;;;6.80;1.00;;;;;;4885983;29;20999;-79
2022/11/12 05:28:05;;;;;;;5.63;5.33;;;6.80;1.00;;;;;;4883739;29;20498;-78
2022/11/12 05:30:34;;;;;;;5.07;4.77;;;6.80;1.00;;;;;;4882103;29;20453;-79
2022/11/12 05:33:03;;;;;;;4.90;4.70;;;6.90;1.00;;;;;;4886807;29;20526;-79
2022/11/12 05:35:31;;;;;;;5.20;4.90;;;6.70;1.00;;;;;;4889676;29;20469;-79
2022/11/12 05:37:59;;;;;;;5.60;5.30;;;6.70;1.00;;;;;;4888772;29;20481;-79
2022/11/12 05:40:27;;;;;;;5.47;5.17;;;6.70;1.00;;;;;;4888049;29;20465;-79
2022/11/12 05:42:55;;;;;;;5.67;5.27;;;6.70;1.00;;;;;;4882816;29;20540;-79
2022/11/12 05:45:24;;;;;;;5.70;5.40;;;6.90;1.00;;;;;;4884061;29;20477;-79
2022/11/12 05:47:53;;;;;;;4.97;4.67;;;6.80;1.00;;;;;;4891189;29;20485;-80
2022/11/12 05:50:21;;;;;;;5.37;5.07;;;6.80;1.00;;;;;;4893374;29;20510;-79
2022/11/12 05:52:49;;;;;;;5.73;5.33;;;6.90;1.00;;;;;;4884862;29;20611;-80
2022/11/12 05:55:17;;;;;;;5.33;5.03;;;6.90;1.00;;;;;;4888577;29;20521;-78
2022/11/12 05:57:45;;;;;;;5.50;5.20;;;6.90;1.00;;;;;;4888989;29;20518;-78
2022/11/12 06:00:14;;;;;;;5.10;4.87;;;6.90;1.00;;;;;;4884154;29;20468;-78
2022/11/12 06:02:43;;;;;;;5.10;4.80;;;7.00;1.00;;;;;;4883872;29;20459;-78
2022/11/12 06:05:11;;;;;;;5.67;5.37;;;6.90;1.00;;;;;;4880840;29;20474;-80
2022/11/12 06:07:40;;;;;;;6.60;6.20;;;6.80;1.00;;;;;;4882237;29;20460;-79
2022/11/12 06:10:08;;;;;;;5.40;5.20;;;6.90;1.00;;;;;;4882821;29;20464;-77
2022/11/12 06:12:37;;;;;;;5.27;5.00;;;6.90;1.00;;;;;;4882029;29;20606;-80
2022/11/12 06:15:05;;;;;;;5.10;4.80;;;6.90;1.00;;;;;;4881723;29;20467;-78
2022/11/12 06:17:34;;;;;;;6.07;5.77;;;6.80;1.00;;;;;;4880846;29;20597;-78
2022/11/12 06:20:03;;;;;;;6.33;5.83;;;6.80;1.00;;;;;;4880380;29;20526;-78
2022/11/12 06:22:31;;;;;;;6.17;5.80;;;6.80;1.00;;;;;;4879392;29;20991;-80
2022/11/12 06:24:59;;;;;;;5.70;5.40;;;6.80;1.00;;;;;;4881286;29;20949;-79
2022/11/12 06:27:27;;;;;;;6.00;5.70;;;6.70;1.00;;;;;;4885141;29;20575;-80
2022/11/12 06:29:56;;;;;;;5.70;5.40;;;6.60;99.90;;;;;;4886931;29;20455;-78
2022/11/12 06:32:24;;;;;;;5.90;5.50;;;6.50;1.00;;;;;;4887056;29;20587;-78
2022/11/12 06:34:52;;;;;;;5.47;5.10;;;6.50;99.90;;;;;;4897647;29;20607;-78
2022/11/12 06:37:22;;;;;;;5.90;5.50;;;6.50;99.90;;;;;;4881317;29;20571;-78
2022/11/12 06:39:50;;;;;;;5.57;5.20;;;6.50;99.90;;;;;;4883691;29;20498;-79
2022/11/12 06:42:18;;;;;;;5.87;5.57;;;6.40;99.90;;;;;;4882120;29;20497;-78
2022/11/12 06:44:46;;;;;;;5.70;5.40;;;6.30;1.00;;;;;;4880023;29;20817;-79
2022/11/12 06:47:14;;;;;;;5.70;5.40;;;6.30;99.90;;;;;;4879192;29;20491;-78
2022/11/12 06:49:42;;;;;;;5.50;5.10;;;6.30;99.90;;;;;;4884538;29;20575;-78
2022/11/12 06:52:11;;;;;;;5.47;5.13;;;6.30;99.90;;;;;;4882335;29;20464;-79
2022/11/12 06:54:46;;;;;;;5.83;5.53;;;6.50;99.90;;;;;;4881575;29;20485;-78
2022/11/12 06:57:14;;;;;;;5.93;5.43;;;6.50;99.90;;;;;;4878494;29;20472;-78
2022/11/12 06:59:42;;;;;;;5.53;5.23;;;6.70;99.90;;;;;;4880567;29;21365;-79
2022/11/12 07:02:12;;;;;;;6.20;5.90;;;6.50;99.90;;;;;;4889679;29;20469;-80
2022/11/12 07:04:40;;;;;;;5.83;5.53;;;6.40;99.90;;;;;;4888508;29;20544;-80
2022/11/12 07:07:08;;;;;;;5.73;5.33;;;6.40;99.90;;;;;;4880444;29;20524;-79
2022/11/12 07:09:38;;;;;;;5.97;5.57;;;6.50;1.00;;;;;;4882943;29;20468;-78
2022/11/12 07:12:07;;;;;;;6.30;5.90;;;6.70;99.90;;;;;;4881939;29;20546;-79
2022/11/12 07:14:35;;;;;;;6.10;5.70;;;6.70;1.00;;;;;;4883477;29;20945;-80
2022/11/12 07:17:04;;;;;;;5.40;5.10;;;6.80;99.90;;;;;;4878138;29;20550;-78
2022/11/12 07:19:32;;;;;;;15.67;14.10;;;6.90;99.90;;;;;;4881672;29;22658;-80
2022/11/12 07:22:00;;;;;;;5.77;5.40;;;7.00;99.90;;;;;;4881263;29;20507;-81
2022/11/12 07:24:28;;;;;;;5.77;5.37;;;7.30;99.90;;;;;;4878777;29;20476;-79
2022/11/12 07:26:56;;;;;;;6.77;6.30;;;7.60;99.90;;;;;;4882965;29;20468;-79
2022/11/12 07:29:25;;;;;;;7.53;7.03;;;7.80;99.90;;;;;;4884802;29;20536;-80
2022/11/12 07:32:14;;;;;;;8.03;7.43;;;7.80;99.90;;;;;;4883568;29;20474;-81
2022/11/12 07:34:42;;;;;;;7.63;7.03;;;8.00;99.90;;;;;;4882727;29;20576;-81
2022/11/12 07:37:10;;;;;;;7.38;6.88;;;8.00;99.90;;;;;;4889630;29;20456;-81
2022/11/12 07:39:38;;;;;;;7.30;6.70;;;8.10;99.90;;;;;;4883045;29;20231;-81
2022/11/12 07:42:06;;;;;;;7.50;6.87;;;8.40;99.90;;;;;;4883678;29;20507;-82
2022/11/12 07:44:36;;;;;;;7.90;7.37;;;8.60;99.90;;;;;;4885527;29;20469;-81
2022/11/12 07:47:04;;;;;;;6.87;6.47;;;8.70;99.90;;;;;;4880693;29;20473;-84
2022/11/12 07:49:32;;;;;;;7.03;6.53;;;8.70;33.10;;;;;;4882456;29;20496;-80
2022/11/12 07:52:01;;;;;;;8.17;7.47;;;8.70;43.70;;;;;;4880298;29;20462;-81
2022/11/12 07:54:29;;;;;;;7.47;6.87;;;8.90;54.80;;;;;;4882487;29;20550;-79
2022/11/12 07:56:57;;;;;;;7.33;6.93;;;8.80;28.90;;;;;;4880608;29;20481;-81
2022/11/12 07:59:25;;;;;;;6.40;6.10;;;8.80;53.70;;;;;;4879603;29;20485;-80
2022/11/12 08:01:55;;;;;;;6.90;6.50;;;8.90;55.80;;;;;;4883230;29;21011;-80
2022/11/12 08:04:23;;;;;;;6.67;6.30;;;9.00;19.90;;;;;;4882110;29;20962;-80
2022/11/12 08:06:51;;;;;;;6.20;5.80;;;9.20;1.00;;;;;;4883091;29;20969;-81
2022/11/12 08:09:20;;;;;;;7.20;6.80;;;9.30;1.00;;;;;;4880594;29;20511;-80
2022/11/12 08:11:48;;;;;;;7.00;6.67;;;9.40;1.00;;;;;;4880401;29;20985;-79
2022/11/12 08:14:16;;;;;;;6.70;6.30;;;9.70;1.00;;;;;;4879605;29;20469;-79
2022/11/12 08:16:45;;;;;;;6.33;6.00;;;9.80;1.00;;;;;;4878950;29;20508;-79
2022/11/12 08:19:14;;;;;;;6.10;5.80;;;9.90;1.00;;;;;;4880310;29;20490;-81
2022/11/12 08:21:43;;;;;;;6.10;5.80;;;10.20;1.00;;;;;;4878366;29;20962;-81
2022/11/12 08:24:11;;;;;;;6.33;6.03;;;10.60;1.00;;;;;;4878096;29;20458;-80
2022/11/12 08:26:40;;;;;;;6.87;6.57;;;10.80;1.00;;;;;;4883931;29;20463;-81
2022/11/12 08:29:09;;;;;;;5.80;5.60;;;10.70;1.00;;;;;;4889289;29;20479;-81
2022/11/12 08:31:38;;;;;;;6.20;5.90;;;10.80;1.00;;;;;;4892920;29;20569;-84
2022/11/12 08:34:11;;;;;;;5.70;5.47;;;10.70;1.00;;;;;;4889261;29;20900;-80
2022/11/12 08:36:47;;;;;;;6.20;6.00;;;10.60;1.00;;;;;;4888868;29;20454;-79
2022/11/12 08:39:15;;;;;;;6.23;5.93;;;10.60;1.00;;;;;;4888647;29;20324;-81
2022/11/12 08:41:43;;;;;;;5.57;5.27;;;10.60;1.00;;;;;;4886532;29;20545;-79
2022/11/12 08:44:11;;;;;;;5.83;5.53;;;10.70;1.00;;;;;;4885787;29;20533;-80
2022/11/12 08:46:39;;;;;;;5.77;5.47;;;10.60;1.00;;;;;;4888512;29;20571;-79
2022/11/12 08:49:07;;;;;;;5.83;5.63;;;10.60;1.00;;;;;;4883203;29;20489;-81
2022/11/12 08:51:35;;;;;;;5.80;5.60;;;10.70;1.00;;;;;;4891721;29;20534;-80
2022/11/12 08:54:04;;;;;;;5.27;5.07;;;10.60;1.00;;;;;;4886834;29;21089;-81
2022/11/12 08:56:33;;;;;;;6.07;5.77;;;10.60;1.00;;;;;;4891816;29;20531;-80
2022/11/12 08:59:01;;;;;;;5.57;5.38;;;10.50;1.00;;;;;;4885870;29;20545;-79
2022/11/12 09:01:34;;;;;;;6.80;6.50;;;10.50;1.00;;;;;;4889981;29;20218;-80
2022/11/12 09:04:02;;;;;;;5.27;5.07;;;10.70;1.00;;;;;;4884065;29;20526;-79
2022/11/12 09:06:30;;;;;;;6.17;5.97;;;10.90;1.00;;;;;;4887350;29;20874;-80
2022/11/12 09:08:58;;;;;;;6.03;5.70;;;11.00;1.00;;;;;;4885334;29;20514;-80
2022/11/12 09:11:28;;;;;;;6.60;6.30;;;11.10;1.00;;;;;;4888388;29;21078;-80
2022/11/12 09:13:56;;;;;;;6.73;6.33;;;11.10;1.00;;;;;;4889733;29;20459;-83
2022/11/12 09:16:24;;;;;;;8.35;7.75;;;11.20;1.00;;;;;;4886752;29;20464;-76
2022/11/12 09:18:52;;;;;;;6.30;6.00;;;11.40;1.00;;;;;;4883450;29;20237;-77
2022/11/12 09:21:23;;;;;;;6.40;6.10;;;11.80;1.00;;;;;;4883962;29;20471;-80
2022/11/12 09:23:51;;;;;;;9.63;9.00;;;12.40;1.00;;;;;;4881027;29;20222;-79
2022/11/12 09:26:20;;;;;;;6.20;6.00;;;13.00;99.90;;;;;;4884470;29;20468;-79
2022/11/12 09:28:51;;;;;;;5.70;5.60;;;13.60;99.90;;;;;;4878454;29;20490;-79
2022/11/12 09:31:19;;;;;;;6.07;5.77;;;14.10;99.90;;;;;;4881598;29;20466;-80
2022/11/12 09:33:47;;;;;;;5.13;5.03;;;14.30;99.90;;;;;;4885017;29;20530;-78
2022/11/12 09:36:17;;;;;;;5.70;5.40;;;14.60;99.90;;;;;;4886116;29;20506;-79
2022/11/12 09:38:45;;;;;;;5.30;5.10;;;14.90;99.90;;;;;;4880572;29;21011;-79
2022/11/12 09:41:22;;;;;;;6.13;5.73;;;15.00;99.90;;;;;;4881018;29;20546;-80
2022/11/12 09:43:53;;;;;;;5.07;4.97;;;15.50;99.90;;;;;;4888508;29;20467;-79
2022/11/12 09:46:36;;;;;;;5.93;5.73;;;15.80;99.90;;;;;;4882868;29;21004;-80
2022/11/12 09:49:10;;;;;;;5.63;5.43;;;16.00;99.90;;;;;;4886021;29;20583;-80
2022/11/12 09:51:43;;;;;;;5.50;5.30;;;16.00;99.90;;;;;;4881967;29;20467;-80
2022/11/12 09:54:19;;;;;;;5.97;5.77;;;16.40;99.90;;;;;;4882613;29;20851;-79
2022/11/12 09:56:48;;;;;;;6.30;6.00;;;16.90;99.90;;;;;;4881058;29;20495;-80
2022/11/12 09:59:18;;;;;;;6.20;6.00;;;17.50;99.90;;;;;;4878459;29;20499;-81
2022/11/12 10:01:56;;;;;;;6.80;6.60;;;17.80;99.90;;;;;;4879514;29;20532;-81
2022/11/12 10:04:50;;;;;;;6.23;6.03;;;18.10;99.90;;;;;;4875468;29;20466;-80
2022/11/12 10:07:32;;;;;;;5.57;5.37;;;18.30;99.90;;;;;;4878118;29;20552;-81
2022/11/12 10:10:06;;;;;;;5.77;5.57;;;18.30;99.90;;;;;;4877529;29;20472;-79
2022/11/12 10:12:45;;;;;;;5.70;5.50;;;18.60;99.90;;;;;;4881816;29;20491;-81
2022/11/12 10:18:46;;;;;;;5.70;5.50;;;18.70;99.90;;;;;;4880120;29;20848;-80
2022/11/12 10:21:23;;;;;;;5.10;4.90;;;18.60;99.90;;;;;;4881592;29;20460;-80
2022/11/12 10:23:53;;;;;;;4.83;4.73;;;18.70;99.90;;;;;;4875814;29;20454;-80
2022/11/12 10:26:23;;;;;;;5.17;4.97;;;18.80;99.90;;;;;;4879843;29;20602;-80
2022/11/12 10:28:59;;;;;;;4.70;4.60;;;19.40;99.90;;;;;;4880718;29;20488;-79
2022/11/12 10:31:29;;;;;;;5.17;4.97;;;19.90;99.90;;;;;;4880201;29;20460;-80
2022/11/12 10:34:16;;;;;;;4.43;4.23;;;20.00;99.90;;;;;;4880779;29;20467;-80
2022/11/12 10:36:48;;;;;;;4.73;4.53;;;19.80;99.90;;;;;;4879368;29;20557;-81
2022/11/12 10:39:37;;;;;;;4.43;4.33;;;19.20;99.90;;;;;;4884315;29;20511;-80
2022/11/12 10:42:08;;;;;;;3.97;3.87;;;18.40;99.90;;;;;;4882233;29;20474;-79
2022/11/12 10:44:36;;;;;;;4.10;4.00;;;18.00;99.90;;;;;;4882729;29;20459;-80
2022/11/12 10:47:25;;;;;;;4.50;4.40;;;17.40;99.90;;;;;;4883851;29;20464;-80
2022/11/12 10:50:10;;;;;;;4.00;3.90;;;17.00;99.90;;;;;;4877716;29;20551;-80
2022/11/12 10:52:39;;;;;;;4.23;4.13;;;16.80;99.90;;;;;;4885106;29;20470;-80
2022/11/12 10:55:15;;;;;;;4.23;4.13;;;16.90;99.90;;;;;;4883812;29;20518;-79
2022/11/12 10:57:43;;;;;;;5.30;5.17;;;17.00;99.90;;;;;;4883393;29;20471;-80
2022/11/12 11:00:20;;;;;;;5.30;5.10;;;17.00;99.90;;;;;;4878122;29;20451;-80
2022/11/12 11:02:52;;;;;;;4.63;4.53;;;17.40;99.90;;;;;;4879336;29;20455;-77
2022/11/12 11:05:32;;;;;;;3.90;3.80;;;17.80;99.90;;;;;;4880245;29;20459;-80
2022/11/12 11:08:01;;;;;;;3.63;3.53;;;19.50;99.90;;;;;;4875152;29;20487;-80
2022/11/12 11:10:32;;;;;;;4.10;4.00;;;19.60;99.90;;;;;;4882472;29;21043;-81
2022/11/12 11:13:19;;;;;;;4.40;4.20;;;18.40;99.90;;;;;;4881113;29;20467;-80
2022/11/12 11:16:02;;;;;;;3.80;3.70;;;17.50;99.90;;;;;;4875979;29;21058;-80
2022/11/12 11:18:34;;;;;;;3.57;3.47;;;17.30;99.90;;;;;;4878183;29;20752;-81
2022/11/12 11:21:13;;;;;;;4.13;4.03;;;17.00;99.90;;;;;;4879627;29;20977;-79
2022/11/12 11:23:52;;;;;;;4.40;4.20;;;16.90;99.90;;;;;;4888785;29;20485;-80
2022/11/12 11:26:31;;;;;;;4.10;3.90;;;16.60;99.90;;;;;;4883389;29;20456;-84
2022/11/12 11:29:17;;;;;;;4.80;4.60;;;16.50;99.90;;;;;;4881063;29;20482;-78
2022/11/12 11:31:53;;;;;;;4.73;4.60;;;16.50;99.90;;;;;;4877477;29;21051;-80
2022/11/12 11:34:36;;;;;;;4.93;4.73;;;16.50;99.90;;;;;;4879911;29;20970;-79
2022/11/12 11:37:19;;;;;;;5.00;4.80;;;16.50;99.90;;;;;;4876984;29;20519;-80
2022/11/12 11:40:00;;;;;;;5.10;4.90;;;16.50;99.90;;;;;;4880676;29;20505;-79
2022/11/12 11:42:55;;;;;;;4.70;4.40;;;16.50;99.90;;;;;;4877420;29;20502;-80
2022/11/12 11:45:31;;;;;;;4.40;4.30;;;16.40;99.90;;;;;;4880840;29;20502;-80
2022/11/12 11:48:07;;;;;;;5.07;4.77;;;16.30;99.90;;;;;;4878157;29;21017;-81
2022/11/12 11:50:42;;;;;;;4.60;4.50;;;16.40;99.90;;;;;;4882784;29;20481;-80
2022/11/12 11:53:21;;;;;;;5.00;4.80;;;16.20;99.90;;;;;;4885639;29;20841;-79
2022/11/12 11:55:54;;;;;;;4.53;4.33;;;16.40;99.90;;;;;;4883660;29;20476;-81
2022/11/12 11:58:53;;;;;;;5.10;4.80;;;16.50;99.90;;;;;;4881252;29;20514;-80
2022/11/12 12:01:30;;;;;;;4.90;4.60;;;16.50;99.90;;;;;;4876455;29;20471;-81
2022/11/12 12:04:23;;;;;;;5.20;4.90;;;16.40;99.90;;;;;;4880300;29;21056;-81
2022/11/12 12:07:03;;;;;;;5.10;4.90;;;16.50;99.90;;;;;;4883144;29;20811;-83
2022/11/12 12:09:42;;;;;;;4.50;4.40;;;16.50;99.90;;;;;;4883139;29;20476;-82
2022/11/12 12:12:25;;;;;;;4.50;4.40;;;16.40;99.90;;;;;;4884323;29;20465;-82
2022/11/12 12:15:06;;;;;;;5.27;5.00;;;16.30;99.90;;;;;;4885989;29;20517;-82
2022/11/12 12:17:46;;;;;;;5.37;5.17;;;16.30;99.90;;;;;;4885032;29;20593;-83
2022/11/12 12:20:20;;;;;;;6.00;5.80;;;16.10;99.90;;;;;;4886128;29;20463;-82
2022/11/12 12:22:53;;;;;;;5.30;5.10;;;16.10;99.90;;;;;;4881491;29;20463;-82
2022/11/12 12:25:26;;;;;;;5.50;5.30;;;16.10;99.90;;;;;;4881050;29;21045;-80
2022/11/12 12:28:01;;;;;;;5.73;5.43;;;16.10;99.90;;;;;;4882239;29;20481;-82
2022/11/12 12:30:34;;;;;;;4.90;4.70;;;16.10;99.90;;;;;;4877770;29;20476;-81
2022/11/12 12:33:17;;;;;;;6.30;5.70;;;16.00;99.90;;;;;;4880500;29;20800;-81
2022/11/12 12:35:52;;;;;;;5.87;5.67;;;15.90;99.90;;;;;;4878512;29;20553;-81
2022/11/12 12:38:28;;;;;;;5.30;5.10;;;15.90;99.90;;;;;;4878858;29;20484;-81
2022/11/12 12:41:04;;;;;;;5.37;5.17;;;15.90;99.90;;;;;;4878138;29;20589;-82
2022/11/12 12:43:37;;;;;;;5.40;5.10;;;16.00;99.90;;;;;;4880285;29;21046;-83
2022/11/12 12:46:07;;;;;;;5.07;4.97;;;16.00;99.90;;;;;;4878063;29;20476;-83
2022/11/12 12:48:40;;;;;;;5.30;5.10;;;16.00;99.90;;;;;;4882110;29;20486;-80
2022/11/12 12:51:08;;;;;;;4.97;4.77;;;15.80;99.90;;;;;;4883882;29;20466;-82
2022/11/12 12:53:39;;;;;;;11.33;10.33;;;15.90;99.90;;;;;;4878979;29;20514;-81
2022/11/12 12:56:44;;;;;;;9.40;8.70;;;15.90;99.90;;;;;;4881637;29;20859;-82
2022/11/12 12:59:21;;;;;;;5.30;4.90;;;15.90;99.90;;;;;;4883237;29;20484;-81
2022/11/12 13:01:58;;;;;;;5.40;5.20;;;15.90;99.90;;;;;;4883147;29;20467;-82
2022/11/12 13:04:52;;;;;;;5.50;5.07;;;15.90;99.90;;;;;;4888316;29;20462;-80
2022/11/12 13:07:38;;;;;;;6.13;5.63;;;15.80;99.90;;;;;;4880351;29;20463;-81
2022/11/12 13:10:48;;;;;;;6.00;5.80;;;15.80;99.90;;;;;;4881819;29;20475;-80
2022/11/12 13:13:40;;;;;;;5.90;5.50;;;15.70;99.90;;;;;;4881724;29;21286;-83
2022/11/12 13:16:09;;;;;;;6.40;6.10;;;15.60;99.90;;;;;;4868191;29;20508;-80
2022/11/12 13:19:10;;;;;;;4.80;4.63;;;15.50;99.90;;;;;;4881712;29;20566;-80
2022/11/12 13:21:38;;;;;;;6.30;6.00;;;15.50;99.90;;;;;;4882170;29;20446;-79
2022/11/12 13:24:12;;;;;;;5.50;5.20;;;15.40;99.90;;;;;;4887006;29;20534;-81
2022/11/12 13:26:51;;;;;;;5.50;5.20;;;15.40;99.90;;;;;;4882121;29;20465;-80
2022/11/12 13:29:40;;;;;;;5.50;5.10;;;15.40;99.90;;;;;;4882475;29;20478;-80
2022/11/12 13:32:32;;;;;;;5.53;5.30;;;15.30;99.90;;;;;;4884973;29;20459;-79
2022/11/12 13:35:29;;;;;;;5.57;5.33;;;15.30;99.90;;;;;;4885344;29;20464;-80
2022/11/12 13:38:03;;;;;;;5.70;5.20;;;15.10;99.90;;;;;;4885427;29;20528;-80
2022/11/12 13:40:39;;;;;;;5.83;5.37;;;15.20;99.90;;;;;;4882367;29;20822;-80
2022/11/12 13:43:18;;;;;;;6.00;5.50;;;15.20;99.90;;;;;;4885384;29;20462;-80